Terminal Aerodrome Forecast
Issued by NWS

Current Version | Previous Version | Text Only | Print | Product List | Glossary On
Versions: 1 2 3 4 5 6 7 8 9 10 11 12 13 14 15 16 17 18 19 20 21 22 23 24
000 FTUS41 KILN 030221 AAA TAFLCK TAF AMD KLCK 030221Z 0302/0324 VRB03KT P6SM SCT050 SCT100 TEMPO 0303/0304 3SM TSRA BR BKN035CB FM030700 00000KT 3SM BR SCT040 TEMPO 0309/0311 1SM BR FM031400 31006KT P6SM SCT040 FM031900 32008KT P6SM VCTS BKN035CB=

USA.gov is the U.S. government's official web portal to all federal, state and local government web resources and services.